(°C)
10°
(°C)
აჩა
აჩა
ჩა
ჩა
ჩა
ჩა
ჩა
(კმ/სთ)
14-21
15-21
15-22
15-24
15-24
16-28
17-30
(მმ)
0
0
0
0
0
0
0
(%)
0
0
0
0
0
0
0

მზის სიმაღლე

/ -13.9°
sun-icon
UV 4
04:06
20:48
მთვარე ბოლო კვარტალში (266°)
02:19
10:32

METAR 55.6°ჩრ. 37.27°აღმ. (UUWW)-თვის

დრო პირობები ტემპერატურა/
ნამი
ქარი ხილვადობა ამინდი ღრუბლები წნევა ცვლილება დაუმუშავებელი
VFR 9°C / -2°C 70º 12kt >10km - Clouds and Visibility OK 1004 No Significant change UUWW 212130Z 07006MPS CAVOK 09/M02 Q1004 R06/000070 NOSIG
VFR 10°C / -1°C 60º 14kt >10km - Clouds and Visibility OK 1004 No Significant change UUWW 212100Z 06007MPS CAVOK 10/M01 Q1004 R06/000070 NOSIG
VFR 9°C / 0°C 20º 8kt >10km - Clouds and Visibility OK 1004 No Significant change UUWW 212030Z 02004MPS CAVOK 09/M00 Q1004 R06/000070 NOSIG
VFR 10°C / 0°C 110º 2kt >10km - Clouds and Visibility OK 1004 No Significant change UUWW 212000Z 11001MPS CAVOK 10/M00 Q1004 R06/000070 NOSIG
VFR 10°C / -1°C 140º 2kt >10km - Clouds and Visibility OK 1004 No Significant change UUWW 211930Z 14001MPS CAVOK 10/M01 Q1004 R06/000070 NOSIG
VFR 11°C / -1°C 130º 2kt >10km - Clouds and Visibility OK 1005 No Significant change UUWW 211900Z 13001MPS CAVOK 11/M01 Q1005 R06/000070 NOSIG
VFR 12°C / -1°C 130º 4kt >10km - Clouds and Visibility OK 1005 No Significant change UUWW 211830Z 13002MPS CAVOK 12/M01 Q1005 R06/000070 NOSIG
VFR 12°C / -1°C 120º 4kt >10km - Clouds and Visibility OK 1005 No Significant change UUWW 211800Z 12002MPS CAVOK 12/M01 Q1005 R06/000070 NOSIG
VFR 13°C / -2°C 110º 6kt >10km - Clouds and Visibility OK 1005 No Significant change UUWW 211730Z 11003MPS CAVOK 13/M02 Q1005 R06/000070 NOSIG
VFR 13°C / -1°C 140º 2kt >10km - Clouds and Visibility OK 1005 No Significant change UUWW 211700Z 14001MPS CAVOK 13/M01 Q1005 R06/000070 NOSIG
VFR 14°C / -1°C 120º 4kt >10km - Clouds and Visibility OK 1006 No Significant change UUWW 211630Z 12002MPS CAVOK 14/M01 Q1006 R06/000070 NOSIG
VFR 14°C / -3°C 110º 4kt >10km - Clouds and Visibility OK 1006 No Significant change UUWW 211600Z 11002MPS CAVOK 14/M03 Q1006 R06/000070 NOSIG
VFR 15°C / -4°C 120º 4kt >10km - Clouds and Visibility OK 1006 No Significant change UUWW 211530Z 12002MPS CAVOK 15/M04 Q1006 R06/000070 NOSIG
VFR 14°C / -3°C 120º 6kt >10km - Clouds and Visibility OK 1006 No Significant change UUWW 211500Z 12003MPS CAVOK 14/M03 Q1006 R06/000070 NOSIG
VFR 15°C / -3°C 90º variable 050º to 120º 6kt >10km - Clouds and Visibility OK 1007 No Significant change UUWW 211430Z 09003MPS 050V120 CAVOK 15/M03 Q1007 R06/000070 NOSIG
VFR 15°C / -2°C 70º 6kt >10km - Clouds and Visibility OK 1007 No Significant change UUWW 211400Z 07003MPS CAVOK 15/M02 Q1007 R06/000070 NOSIG
VFR 15°C / -3°C 110º 6kt >10km - Clouds and Visibility OK 1007 No Significant change UUWW 211330Z 11003MPS CAVOK 15/M03 Q1007 R06/000070 NOSIG
VFR 15°C / -2°C variable 4kt >10km - Clouds and Visibility OK 1007 No Significant change UUWW 211300Z VRB02MPS CAVOK 15/M02 Q1007 R06/000070 NOSIG
VFR 15°C / -1°C 130º 8kt >10km - Clouds and Visibility OK 1008 No Significant change UUWW 211230Z 13004MPS CAVOK 15/M01 Q1008 R06/000070 NOSIG
VFR 15°C / -2°C 70º variable 340º to 130º 4kt >10km - Clouds and Visibility OK 1008 No Significant change UUWW 211200Z 07002MPS 340V130 CAVOK 15/M02 Q1008 R06/000070 NOSIG
VFR 15°C / -2°C variable 4kt Gust 14kt >10km - Clouds and Visibility OK 1008 No Significant change UUWW 211130Z VRB02G07MPS CAVOK 15/M02 Q1008 R06/000070 NOSIG
VFR 14°C / -2°C 200º variable 150º to 240º 6kt >10km - Clouds and Visibility OK 1009 No Significant change UUWW 211100Z 20003MPS 150V240 CAVOK 14/M02 Q1009 R06/000070 NOSIG
VFR 14°C / -3°C 170º variable 100º to 230º 6kt >10km - Clouds and Visibility OK 1009 No Significant change UUWW 211030Z 17003MPS 100V230 CAVOK 14/M03 Q1009 R06/000070 NOSIG
VFR 14°C / -1°C 130º 4kt. Wind Shear present on Runway 06. >10km - Clouds and Visibility OK 1009 No Significant change UUWW 211000Z 13002MPS CAVOK 14/M01 Q1009 WS R06 R06/000070 NOSIG

VFR

9°C / -2°C

[მეტი]
ქარი 70º 12kt
ხილვადობა >10km
ამინდი -
ღრუბლები Clouds and Visibility OK
წნევა 1004
ცვლილება No Significant change
დაუმუშავებელი UUWW 212130Z 07006MPS CAVOK 09/M02 Q1004 R06/000070 NOSIG

VFR

10°C / -1°C

[მეტი]
ქარი 60º 14kt
ხილვადობა >10km
ამინდი -
ღრუბლები Clouds and Visibility OK
წნევა 1004
ცვლილება No Significant change
დაუმუშავებელი UUWW 212100Z 06007MPS CAVOK 10/M01 Q1004 R06/000070 NOSIG

VFR

9°C / 0°C

[მეტი]
ქარი 20º 8kt
ხილვადობა >10km
ამინდი -
ღრუბლები Clouds and Visibility OK
წნევა 1004
ცვლილება No Significant change
დაუმუშავებელი UUWW 212030Z 02004MPS CAVOK 09/M00 Q1004 R06/000070 NOSIG

VFR

10°C / 0°C

[მეტი]
ქარი 110º 2kt
ხილვადობა >10km
ამინდი -
ღრუბლები Clouds and Visibility OK
წნევა 1004
ცვლილება No Significant change
დაუმუშავებელი UUWW 212000Z 11001MPS CAVOK 10/M00 Q1004 R06/000070 NOSIG

VFR

10°C / -1°C

[მეტი]
ქარი 140º 2kt
ხილვადობა >10km
ამინდი -
ღრუბლები Clouds and Visibility OK
წნევა 1004
ცვლილება No Significant change
დაუმუშავებელი UUWW 211930Z 14001MPS CAVOK 10/M01 Q1004 R06/000070 NOSIG

VFR

11°C / -1°C

[მეტი]
ქარი 130º 2kt
ხილვადობა >10km
ამინდი -
ღრუბლები Clouds and Visibility OK
წნევა 1005
ცვლილება No Significant change
დაუმუშავებელი UUWW 211900Z 13001MPS CAVOK 11/M01 Q1005 R06/000070 NOSIG

VFR

12°C / -1°C

[მეტი]
ქარი 130º 4kt
ხილვადობა >10km
ამინდი -
ღრუბლები Clouds and Visibility OK
წნევა 1005
ცვლილება No Significant change
დაუმუშავებელი UUWW 211830Z 13002MPS CAVOK 12/M01 Q1005 R06/000070 NOSIG

VFR

12°C / -1°C

[მეტი]
ქარი 120º 4kt
ხილვადობა >10km
ამინდი -
ღრუბლები Clouds and Visibility OK
წნევა 1005
ცვლილება No Significant change
დაუმუშავებელი UUWW 211800Z 12002MPS CAVOK 12/M01 Q1005 R06/000070 NOSIG

VFR

13°C / -2°C

[მეტი]
ქარი 110º 6kt
ხილვადობა >10km
ამინდი -
ღრუბლები Clouds and Visibility OK
წნევა 1005
ცვლილება No Significant change
დაუმუშავებელი UUWW 211730Z 11003MPS CAVOK 13/M02 Q1005 R06/000070 NOSIG

VFR

13°C / -1°C

[მეტი]
ქარი 140º 2kt
ხილვადობა >10km
ამინდი -
ღრუბლები Clouds and Visibility OK
წნევა 1005
ცვლილება No Significant change
დაუმუშავებელი UUWW 211700Z 14001MPS CAVOK 13/M01 Q1005 R06/000070 NOSIG

VFR

14°C / -1°C

[მეტი]
ქარი 120º 4kt
ხილვადობა >10km
ამინდი -
ღრუბლები Clouds and Visibility OK
წნევა 1006
ცვლილება No Significant change
დაუმუშავებელი UUWW 211630Z 12002MPS CAVOK 14/M01 Q1006 R06/000070 NOSIG

VFR

14°C / -3°C

[მეტი]
ქარი 110º 4kt
ხილვადობა >10km
ამინდი -
ღრუბლები Clouds and Visibility OK
წნევა 1006
ცვლილება No Significant change
დაუმუშავებელი UUWW 211600Z 11002MPS CAVOK 14/M03 Q1006 R06/000070 NOSIG

VFR

15°C / -4°C

[მეტი]
ქარი 120º 4kt
ხილვადობა >10km
ამინდი -
ღრუბლები Clouds and Visibility OK
წნევა 1006
ცვლილება No Significant change
დაუმუშავებელი UUWW 211530Z 12002MPS CAVOK 15/M04 Q1006 R06/000070 NOSIG

VFR

14°C / -3°C

[მეტი]
ქარი 120º 6kt
ხილვადობა >10km
ამინდი -
ღრუბლები Clouds and Visibility OK
წნევა 1006
ცვლილება No Significant change
დაუმუშავებელი UUWW 211500Z 12003MPS CAVOK 14/M03 Q1006 R06/000070 NOSIG

VFR

15°C / -3°C

[მეტი]
ქარი 90º variable 050º to 120º 6kt
ხილვადობა >10km
ამინდი -
ღრუბლები Clouds and Visibility OK
წნევა 1007
ცვლილება No Significant change
დაუმუშავებელი UUWW 211430Z 09003MPS 050V120 CAVOK 15/M03 Q1007 R06/000070 NOSIG

VFR

15°C / -2°C

[მეტი]
ქარი 70º 6kt
ხილვადობა >10km
ამინდი -
ღრუბლები Clouds and Visibility OK
წნევა 1007
ცვლილება No Significant change
დაუმუშავებელი UUWW 211400Z 07003MPS CAVOK 15/M02 Q1007 R06/000070 NOSIG

VFR

15°C / -3°C

[მეტი]
ქარი 110º 6kt
ხილვადობა >10km
ამინდი -
ღრუბლები Clouds and Visibility OK
წნევა 1007
ცვლილება No Significant change
დაუმუშავებელი UUWW 211330Z 11003MPS CAVOK 15/M03 Q1007 R06/000070 NOSIG

VFR

15°C / -2°C

[მეტი]
ქარი variable 4kt
ხილვადობა >10km
ამინდი -
ღრუბლები Clouds and Visibility OK
წნევა 1007
ცვლილება No Significant change
დაუმუშავებელი UUWW 211300Z VRB02MPS CAVOK 15/M02 Q1007 R06/000070 NOSIG

VFR

15°C / -1°C

[მეტი]
ქარი 130º 8kt
ხილვადობა >10km
ამინდი -
ღრუბლები Clouds and Visibility OK
წნევა 1008
ცვლილება No Significant change
დაუმუშავებელი UUWW 211230Z 13004MPS CAVOK 15/M01 Q1008 R06/000070 NOSIG

VFR

15°C / -2°C

[მეტი]
ქარი 70º variable 340º to 130º 4kt
ხილვადობა >10km
ამინდი -
ღრუბლები Clouds and Visibility OK
წნევა 1008
ცვლილება No Significant change
დაუმუშავებელი UUWW 211200Z 07002MPS 340V130 CAVOK 15/M02 Q1008 R06/000070 NOSIG

VFR

15°C / -2°C

[მეტი]
ქარი variable 4kt Gust 14kt
ხილვადობა >10km
ამინდი -
ღრუბლები Clouds and Visibility OK
წნევა 1008
ცვლილება No Significant change
დაუმუშავებელი UUWW 211130Z VRB02G07MPS CAVOK 15/M02 Q1008 R06/000070 NOSIG

VFR

14°C / -2°C

[მეტი]
ქარი 200º variable 150º to 240º 6kt
ხილვადობა >10km
ამინდი -
ღრუბლები Clouds and Visibility OK
წნევა 1009
ცვლილება No Significant change
დაუმუშავებელი UUWW 211100Z 20003MPS 150V240 CAVOK 14/M02 Q1009 R06/000070 NOSIG

VFR

14°C / -3°C

[მეტი]
ქარი 170º variable 100º to 230º 6kt
ხილვადობა >10km
ამინდი -
ღრუბლები Clouds and Visibility OK
წნევა 1009
ცვლილება No Significant change
დაუმუშავებელი UUWW 211030Z 17003MPS 100V230 CAVOK 14/M03 Q1009 R06/000070 NOSIG

VFR

14°C / -1°C

[მეტი]
ქარი 130º 4kt. Wind Shear present on Runway 06.
ხილვადობა >10km
ამინდი -
ღრუბლები Clouds and Visibility OK
წნევა 1009
ცვლილება No Significant change
დაუმუშავებელი UUWW 211000Z 13002MPS CAVOK 14/M01 Q1009 WS R06 R06/000070 NOSIG

TAF 55.6°ჩრ. 37.27°აღმ. (UUWW)-თვის

From till


Maximum Temperature 13ºC on . Minimum Temperature 5ºC on .
From till Wind 50º 12kt. Visibility 10km or more. Nil Significant Cloud.
Temporarly from till Wind 50º 16kt. Gust 27kt.
Becoming from till Wind 350º 10kt. Visibility 10km or more. Nil Significant Cloud.

დაუმუშავებელი: TAF UUWW 211953Z 2121/2221 05006MPS CAVOK TX13/2212Z TN05/2201Z TEMPO 2205/2216 05008G14MPS BECMG 2216/2218 35005MPS

რადარის და ნალექების მაჩვენებელი 55.6°ჩრ. 37.27°აღმ. -თვის

გაწურეთ
Მსუბუქი
ზომიერი
Მძიმე
Ძალიან მძიმე
სეტყვა

მდებარეობის მარკერი მოთავსებულია 55.6°ჩრ. 37.27°აღმ. -ზე. ეს ანიმაცია აჩვენებს ნალექების სარადარო მონაცემებს როგორც ბოლო საათის განმავლობაში, ასევე 1h პროგნოზს. წვიმა ან თოვლის მსუბუქი ვარდნა შეიძლება უჩინარი იყოს რადარისთვის. ნალექების ინტენსივობა არის კოდირებული ფერით, დაწყებული ღია ლურჯიდან ნარინჯისფერამდე.

მიმდინარე სატელიტისა და წვიმის სურათები 55.6°ჩრ. 37.27°აღმ.-თვის

ლოკაციის მარკერი დაყენებყლია 55.6°ჩრ. 37.27°აღმ.ზე. [მეტი]

რეალურ დროში სატელიტური სურათი აერთიანებს ხილულ სინათლეს დღისით ღამის განმავლობაში ინფრაწითელ გამოსხივებასთან ერთად. ღამით, სურათი არ არის მუქი, რადგან ინფრაწითელ გამოსხივებას შეუძლია ტემპერატურის განსხვავებების დადგენა. სამწუხაროდ, დაბალი ღრუბლები და ნისლი ძნელია განასხვავონ მიწის ტემპერატურისგან და, შესაბამისად, ისინი შეიძლება თითქმის არ ჩანდეს ღამით. Meteosat სატელიტური გამოსახულება ევროპისთვის ახლდება რეალურ დროში ყოველ 5 წუთში. GOES-16/GOES-17 (ჩრდილოეთი და სამხრეთ ამერიკა) და ჰიმავარი (აზია) გამოსახულებები ახლდება ყოველ 10 წუთში.

საავტორო უფლებები 2022 EUMETSAT / meteoblue. / საავტორო უფლებები 2022 meteoblue

თავში დაბრუნება